Time;durP1;ratioP1;P1;durP2;ratioP2;P2;SDS_P1;SDS_P2;PMS_P1;PMS_P2;Temp;Humidity;BMP_temperature;BMP_pressure;BME280_temperature;BME280_humidity;BME280_pressure;Samples;Min_cycle;Max_cycle;Signal;HPM_P1;HPM_P2
2022/03/03 00:00:19;;;;;;;16.23;6.22;;;;;;;-10.14;74.18;97346.06;6320986;28;20036;-64
2022/03/03 00:03:23;;;;;;;12.43;5.65;;;;;;;-10.14;73.53;97338.44;6321366;28;20043;-63
2022/03/03 00:06:27;;;;;;;15.70;8.10;;;;;;;-10.27;73.65;97339.03;6320701;28;20139;-63
2022/03/03 00:09:31;;;;;;;22.27;8.43;;;;;;;-10.30;73.70;97336.38;6320709;28;20139;-64
2022/03/03 00:12:34;;;;;;;16.30;7.85;;;;;;;-10.31;73.68;97337.22;6320303;28;20518;-64
2022/03/03 00:15:36;;;;;;;21.50;8.85;;;;;;;-10.20;73.51;97328.13;6302675;28;20067;-63
2022/03/03 00:18:40;;;;;;;12.05;5.25;;;;;;;-10.16;73.10;97327.38;6320982;28;20044;-64
2022/03/03 00:21:47;;;;;;;13.27;6.93;;;;;;;-9.95;73.03;97316.81;6320892;28;20123;-63
2022/03/03 00:24:52;;;;;;;11.27;5.57;;;;;;;-9.91;71.86;97326.22;6321169;28;20068;-64
2022/03/03 00:27:54;;;;;;;12.37;6.47;;;;;;;-9.90;71.64;97325.41;6320703;28;20048;-64
2022/03/03 00:30:58;;;;;;;8.90;4.85;;;;;;;-10.06;71.85;97319.13;6320727;28;20051;-64
2022/03/03 00:34:00;;;;;;;13.77;6.30;;;;;;;-10.38;72.69;97315.00;6320193;28;20419;-64
2022/03/03 00:37:04;;;;;;;12.07;6.20;;;;;;;-10.38;73.06;97315.00;6320607;28;20054;-64
2022/03/03 00:40:06;;;;;;;14.02;6.50;;;;;;;-10.47;73.61;97316.50;6320364;28;20099;-64
2022/03/03 00:43:08;;;;;;;14.57;6.78;;;;;;;-10.51;73.40;97304.53;6319940;28;20044;-64
2022/03/03 00:46:12;;;;;;;13.75;7.03;;;;;;;-10.65;73.76;97298.25;6320217;28;20048;-64
2022/03/03 00:49:13;;;;;;;14.95;7.28;;;;;;;-10.76;73.72;97302.19;6320204;28;20427;-64
2022/03/03 00:52:16;;;;;;;17.40;8.40;;;;;;;-10.73;74.08;97299.72;6320746;28;20048;-64
2022/03/03 00:55:18;;;;;;;8.90;4.68;;;;;;;-10.79;74.13;97297.91;6320174;28;20048;-64
2022/03/03 00:58:19;;;;;;;9.43;5.13;;;;;;;-10.86;74.33;97285.88;6320158;28;20051;-64
2022/03/03 01:01:21;;;;;;;11.77;6.05;;;;;;;-10.73;74.10;97303.13;6320384;28;20441;-63
2022/03/03 01:04:27;;;;;;;16.73;7.00;;;;;;;-10.79;74.28;97286.88;6320079;28;20082;-64
2022/03/03 01:07:31;;;;;;;14.40;7.47;;;;;;;-10.73;73.75;97292.09;6322141;28;20048;-63
2022/03/03 01:10:35;;;;;;;15.43;7.53;;;;;;;-10.74;74.17;97285.31;6324977;28;20056;-64
2022/03/03 01:13:38;;;;;;;13.38;5.78;;;;;;;-10.69;74.16;97292.22;6325292;28;20052;-64
2022/03/03 01:16:42;;;;;;;13.93;6.88;;;;;;;-10.69;73.40;97291.38;6325506;28;20131;-64
2022/03/03 01:19:44;;;;;;;12.77;6.07;;;;;;;-10.79;73.40;97286.88;6324716;28;20047;-64
2022/03/03 01:22:45;;;;;;;10.05;5.93;;;;;;;-10.79;73.91;97291.97;6324777;28;20142;-64
2022/03/03 01:25:48;;;;;;;10.13;5.20;;;;;;;-10.82;73.76;97294.44;6324970;28;20056;-64
2022/03/03 01:28:52;;;;;;;10.25;4.95;;;;;;;-10.76;73.48;97297.97;6324559;28;20047;-64
2022/03/03 01:31:56;;;;;;;12.30;6.50;;;;;;;-10.84;73.30;97291.84;6324979;28;20044;-64
2022/03/03 01:35:02;;;;;;;11.93;6.57;;;;;;;-10.90;73.58;97300.19;6324610;28;20498;-64
2022/03/03 01:38:08;;;;;;;13.13;6.65;;;;;;;-10.78;73.48;97296.22;6324831;28;20477;-63
2022/03/03 01:41:10;;;;;;;14.18;6.65;;;;;;;-10.85;73.46;97293.53;6324514;28;20047;-63
2022/03/03 01:44:11;;;;;;;14.80;6.57;;;;;;;-10.94;73.52;97287.34;6324540;28;20055;-64
2022/03/03 01:47:18;;;;;;;11.60;6.57;;;;;;;-10.90;73.64;97294.22;6324633;28;20047;-64
2022/03/03 01:50:20;;;;;;;11.80;5.78;;;;;;;-10.71;73.10;97291.31;6324226;28;20044;-64
2022/03/03 01:53:21;;;;;;;10.68;6.05;;;;;;;-10.74;72.74;97270.06;6322721;28;20551;-64
2022/03/03 01:56:25;;;;;;;8.93;4.32;;;;;;;-10.70;73.04;97287.09;6323496;28;20055;-64
2022/03/03 01:59:30;;;;;;;16.50;7.70;;;;;;;-10.75;72.80;97281.06;6322146;28;20051;-65
2022/03/03 02:02:34;;;;;;;14.40;6.93;;;;;;;-10.90;73.09;97282.41;6323506;28;20043;-64
2022/03/03 02:05:38;;;;;;;14.57;7.78;;;;;;;-10.96;73.42;97289.00;6323639;28;20055;-63
2022/03/03 02:08:39;;;;;;;15.98;7.53;;;;;;;-10.93;73.31;97279.75;6323067;28;20055;-65
2022/03/03 02:11:49;;;;;;;19.17;8.48;;;;;;;-10.96;73.59;97274.59;6323197;28;20052;-66
2022/03/03 02:14:50;;;;;;;15.40;7.95;;;;;;;-11.00;73.88;97272.81;6323896;28;20055;-64
2022/03/03 02:17:55;;;;;;;16.15;7.85;;;;;;;-11.00;73.57;97270.28;6322747;28;20044;-63
2022/03/03 02:21:01;;;;;;;14.85;8.10;;;;;;;-11.04;73.29;97270.13;6322585;28;20048;-64
2022/03/03 02:24:03;;;;;;;;;;;;;;;-11.00;73.01;97262.66;6323678;28;20048;-63
2022/03/03 02:27:06;;;;;;;20.05;7.82;;;;;;;-11.06;73.34;97262.50;6323165;28;19920;-64
2022/03/03 02:30:11;;;;;;;19.23;8.20;;;;;;;-11.09;72.82;97263.28;6323395;28;20044;-64
2022/03/03 02:33:13;;;;;;;17.77;8.30;;;;;;;-10.86;72.21;97250.28;6323102;28;20052;-64
2022/03/03 02:36:22;;;;;;;4.55;2.80;;;;;;;-10.85;72.10;97255.38;6323335;28;20071;-65
2022/03/03 02:39:28;;;;;;;16.10;7.22;;;;;;;-10.75;71.69;97253.09;6322001;28;20404;-64
2022/03/03 02:42:34;;;;;;;14.13;6.72;;;;;;;-10.91;71.86;97252.69;6323036;28;20048;-64
2022/03/03 02:45:38;;;;;;;14.52;6.35;;;;;;;-10.96;71.85;97259.34;6322988;28;20453;-64
2022/03/03 02:48:44;;;;;;;13.80;6.78;;;;;;;-10.95;72.17;97256.00;6323062;28;20423;-64
2022/03/03 02:51:46;;;;;;;16.60;7.70;;;;;;;-11.00;72.26;97259.25;6322924;28;20123;-65
2022/03/03 02:54:50;;;;;;;17.05;7.82;;;;;;;-10.97;72.10;97262.72;6322129;28;20055;-63
2022/03/03 02:57:54;;;;;;;24.98;9.45;;;;;;;-10.96;72.13;97259.34;6320887;28;20044;-63
2022/03/03 03:00:59;;;;;;;24.95;9.98;;;;;;;-10.97;71.75;97252.56;6322080;28;20051;-63
2022/03/03 03:04:00;;;;;;;45.00;13.75;;;;;;;-10.93;71.75;97244.16;6321388;28;20059;-64
2022/03/03 03:07:04;;;;;;;47.72;15.60;;;;;;;-10.93;71.48;97238.22;6322417;28;20052;-64
2022/03/03 03:10:10;;;;;;;41.95;15.23;;;;;;;-10.91;71.38;97252.69;6321801;28;20051;-65
2022/03/03 03:13:15;;;;;;;44.42;15.60;;;;;;;-10.87;71.21;97246.88;6321957;28;20518;-65
2022/03/03 03:16:19;;;;;;;;;;;;;;;-10.77;71.19;97257.28;6321911;28;20080;-64
2022/03/03 03:19:23;;;;;;;34.38;13.30;;;;;;;-10.72;70.53;97250.63;6321855;28;19919;-64
2022/03/03 03:22:24;;;;;;;25.13;10.73;;;;;;;-10.59;70.00;97250.06;6321352;28;20048;-64
2022/03/03 03:25:31;;;;;;;42.67;15.40;;;;;;;-10.55;70.29;97246.78;6321778;28;20529;-64
2022/03/03 03:28:32;;;;;;;46.28;14.15;;;;;;;-10.45;70.00;97243.63;6321269;28;20056;-64
2022/03/03 03:31:33;;;;;;;41.85;14.05;;;;;;;-10.36;69.70;97245.50;6320118;28;20419;-64
2022/03/03 03:34:37;;;;;;;35.22;14.60;;;;;;;-10.29;69.39;97242.28;6320745;28;20428;-65
2022/03/03 03:37:41;;;;;;;33.97;14.43;;;;;;;-10.20;68.86;97239.06;6320707;28;20048;-64
2022/03/03 03:40:42;;;;;;;28.10;12.18;;;;;;;-10.08;68.68;97239.31;6321837;28;20044;-63
2022/03/03 03:43:48;;;;;;;;;;;;;;;-9.90;68.03;97238.00;6322046;28;20367;-64
2022/03/03 03:46:51;;;;;;;30.63;11.57;;;;;;;-9.73;67.58;97229.03;6320803;28;20394;-63
2022/03/03 03:49:53;;;;;;;35.10;13.98;;;;;;;-9.54;67.43;97228.56;6320903;28;20055;-64
2022/03/03 03:52:56;;;;;;;29.75;13.13;;;;;;;-9.47;66.98;97223.56;6321558;28;20039;-64
2022/03/03 03:56:01;;;;;;;34.30;13.60;;;;;;;-9.34;66.78;97234.03;6320947;28;20044;-65
2022/03/03 03:59:02;;;;;;;20.45;9.32;;;;;;;-9.26;66.33;97241.78;6320504;28;20415;-64
2022/03/03 04:02:04;;;;;;;15.00;8.15;;;;;;;-9.31;66.21;97238.31;6320811;28;20054;-64
2022/03/03 04:05:06;;;;;;;18.88;8.68;;;;;;;-9.34;65.74;97241.66;6321403;28;20519;-64
2022/03/03 04:08:07;;;;;;;15.43;7.70;;;;;;;-9.43;66.23;97233.84;6320037;28;20055;-64
2022/03/03 04:11:10;;;;;;;19.30;8.15;;;;;;;-9.38;66.42;97222.03;6321023;28;20051;-64
2022/03/03 04:14:12;;;;;;;18.23;8.10;;;;;;;-9.23;66.38;97224.00;6319829;28;20147;-65
2022/03/03 04:17:16;;;;;;;19.90;6.70;;;;;;;-9.10;66.08;97220.84;6320483;28;20177;-64
2022/03/03 04:20:22;;;;;;;19.77;7.90;;;;;;;-8.97;65.68;97221.06;6320141;28;20043;-63
2022/03/03 04:23:24;;;;;;;18.55;8.60;;;;;;;-8.86;65.41;97219.53;6320396;28;20093;-65
2022/03/03 04:26:28;;;;;;;17.05;8.23;;;;;;;-8.86;65.44;97219.53;6320697;28;20051;-64
2022/03/03 04:29:34;;;;;;;13.60;6.13;;;;;;;-8.69;65.03;97223.25;6320616;28;20048;-64
2022/03/03 04:32:44;;;;;;;17.63;7.18;;;;;;;-8.69;64.54;97218.16;6319913;28;20040;-64
2022/03/03 04:35:45;;;;;;;15.18;7.47;;;;;;;-8.78;64.79;97217.97;6320146;28;20055;-65
2022/03/03 04:38:50;;;;;;;19.35;9.48;;;;;;;-8.69;64.24;97223.25;6320245;28;20052;-64
2022/03/03 04:41:51;;;;;;;13.40;8.32;;;;;;;-8.75;64.83;97220.56;6319594;28;20048;-64
2022/03/03 04:44:53;;;;;;;20.92;9.32;;;;;;;-8.54;65.01;97206.47;6320123;28;20059;-64
2022/03/03 04:47:54;;;;;;;18.05;9.55;;;;;;;-8.24;64.98;97211.94;6319735;28;20052;-64
2022/03/03 04:50:57;;;;;;;20.02;9.15;;;;;;;-7.93;64.58;97208.13;6320018;28;20052;-64
2022/03/03 04:54:04;;;;;;;21.08;9.57;;;;;;;-7.65;63.79;97202.50;6320405;28;20399;-65
2022/03/03 04:57:06;;;;;;;18.48;9.52;;;;;;;-7.42;63.37;97190.81;6319903;28;20075;-64
2022/03/03 05:00:08;;;;;;;22.25;9.88;;;;;;;-7.18;62.93;97192.78;6320902;28;20055;-64
2022/03/03 05:03:09;;;;;;;21.27;9.20;;;;;;;-6.96;62.59;97188.75;6319999;28;20050;-64
2022/03/03 05:06:10;;;;;;;15.68;8.75;;;;;;;-6.78;62.02;97181.19;6319748;28;20071;-64
2022/03/03 05:09:12;;;;;;;19.02;8.80;;;;;;;-6.69;62.11;97179.56;6318503;28;20052;-64
2022/03/03 05:12:18;;;;;;;;;;;;;;;-6.57;61.51;97179.66;6320875;28;20079;-65
2022/03/03 05:15:21;;;;;;;16.10;9.77;;;;;;;-6.51;61.48;97174.59;6319415;28;19920;-63
2022/03/03 05:18:23;;;;;;;20.77;9.95;;;;;;;-6.33;61.49;97167.00;6319891;28;20086;-64
2022/03/03 05:21:27;;;;;;;16.88;9.52;;;;;;;-6.21;61.22;97167.94;6319866;28;20051;-63
2022/03/03 05:24:34;;;;;;;20.20;8.90;;;;;;;-5.98;61.15;97163.78;6320595;28;20495;-64
2022/03/03 05:27:39;;;;;;;24.00;9.65;;;;;;;-5.56;60.05;97157.06;6319913;28;20054;-65
2022/03/03 05:30:43;;;;;;;15.85;7.35;;;;;;;-5.06;59.09;97153.75;6317920;28;20419;-64
2022/03/03 05:33:47;;;;;;;16.50;7.80;;;;;;;-4.67;58.68;97156.31;6319733;28;20433;-65
2022/03/03 05:36:55;;;;;;;17.15;7.45;;;;;;;-4.30;58.21;97150.31;6319816;28;20044;-64
2022/03/03 05:39:57;;;;;;;12.23;6.70;;;;;;;-3.99;57.56;97144.19;6319254;28;20404;-63
2022/03/03 05:42:59;;;;;;;17.50;7.32;;;;;;;-3.85;56.93;97152.72;6319320;28;20055;-64
2022/03/03 05:46:01;;;;;;;15.60;7.28;;;;;;;-3.69;56.62;97144.09;6319314;28;20040;-64
2022/03/03 05:49:05;;;;;;;14.00;6.75;;;;;;;-1.66;54.57;97152.75;6319291;28;20185;-63
2022/03/03 05:52:10;;;;;;;12.38;6.10;;;;;;;3.56;44.82;97163.59;6318255;28;20050;-64
2022/03/03 05:55:15;;;;;;;9.85;6.07;;;;;;;7.38;37.48;97161.47;6322618;28;20044;-64
2022/03/03 05:58:23;;;;;;;9.48;5.85;;;;;;;10.04;33.34;97155.38;6324042;28;20056;-64
2022/03/03 06:01:28;;;;;;;9.35;6.32;;;;;;;13.09;29.94;97158.72;6324057;28;20048;-64
2022/03/03 06:04:35;;;;;;;9.45;6.43;;;;;;;15.16;26.80;97152.09;6323197;28;20067;-65
2022/03/03 06:07:45;;;;;;;9.52;5.32;;;;;;;17.17;22.65;97150.59;6323939;28;20069;-64
2022/03/03 06:10:56;;;;;;;9.80;5.85;;;;;;;18.81;20.98;97147.28;6323788;28;20044;-64
2022/03/03 06:14:09;;;;;;;10.90;6.43;;;;;;;20.09;18.64;97151.84;6323772;28;20495;-64
2022/03/03 06:17:13;;;;;;;11.35;7.05;;;;;;;20.77;19.39;97142.44;6323557;28;20058;-64
2022/03/03 06:20:16;;;;;;;12.73;6.13;;;;;;;21.20;17.47;97135.31;6323173;28;20131;-64
2022/03/03 06:23:20;;;;;;;10.75;6.40;;;;;;;22.19;16.71;97129.31;6323326;28;20507;-64
2022/03/03 06:26:22;;;;;;;9.50;5.90;;;;;;;22.50;15.58;97136.72;6322962;28;20047;-64
2022/03/03 06:29:24;;;;;;;10.02;5.38;;;;;;;23.75;14.89;97138.81;6323245;28;20048;-65
2022/03/03 06:32:25;;;;;;;8.93;5.40;;;;;;;25.20;13.44;97127.28;6322746;28;20044;-64
2022/03/03 06:35:35;;;;;;;9.63;5.05;;;;;;;25.62;13.03;97129.31;6322192;28;20430;-63
2022/03/03 06:38:37;;;;;;;9.35;5.28;;;;;;;25.86;12.47;97127.34;6322474;28;20059;-63
2022/03/03 06:41:38;;;;;;;6.50;4.70;;;;;;;26.42;11.92;97122.13;6323130;28;20039;-64
2022/03/03 06:44:39;;;;;;;5.65;4.50;;;;;;;26.86;11.54;97116.50;6321280;28;20461;-63
2022/03/03 06:47:46;;;;;;;10.95;4.95;;;;;;;27.34;10.94;97115.78;6322760;28;20044;-64
2022/03/03 06:50:51;;;;;;;7.13;4.63;;;;;;;26.37;10.80;97101.09;6322598;28;20123;-64
2022/03/03 06:53:58;;;;;;;6.25;4.70;;;;;;;26.34;11.04;97103.34;6322919;28;20036;-64
2022/03/03 06:56:59;;;;;;;5.75;4.05;;;;;;;27.06;10.66;97091.47;6322582;28;20730;-64
2022/03/03 07:00:05;;;;;;;5.28;3.85;;;;;;;26.84;9.98;97094.25;6322991;28;20105;-64
2022/03/03 07:03:10;;;;;;;4.50;3.80;;;;;;;27.21;9.77;97089.53;6321432;28;20044;-66
2022/03/03 07:06:15;;;;;;;5.60;3.83;;;;;;;28.64;9.69;97089.56;6322141;28;20583;-64
2022/03/03 07:09:21;;;;;;;4.15;3.15;;;;;;;29.72;9.09;97091.88;6321981;28;20048;-64
2022/03/03 07:12:29;;;;;;;5.70;3.90;;;;;;;30.24;8.62;97081.81;6322294;28;20512;-64
2022/03/03 07:15:34;;;;;;;5.53;4.10;;;;;;;31.04;8.18;97082.00;6321312;28;20052;-64
2022/03/03 07:18:42;;;;;;;6.85;4.35;;;;;;;31.48;7.83;97076.53;6322036;28;20048;-63
2022/03/03 07:22:07;;;;;;;5.82;3.67;;;;;;;31.38;8.32;97073.53;6322169;28;20435;-63
2022/03/03 07:25:14;;;;;;;6.57;4.13;;;;;;;30.33;8.34;97066.91;6321676;28;20051;-63
2022/03/03 07:28:20;;;;;;;7.60;4.35;;;;;;;29.73;8.34;97061.00;6321757;28;20126;-63
2022/03/03 07:31:23;;;;;;;5.80;3.90;;;;;;;29.92;8.12;97062.78;6321273;28;20486;-63
2022/03/03 07:34:30;;;;;;;5.82;4.05;;;;;;;30.46;8.02;97068.72;6321159;28;20112;-65
2022/03/03 07:37:40;;;;;;;6.35;4.07;;;;;;;30.84;7.33;97057.75;6321239;28;20141;-64
2022/03/03 07:40:44;;;;;;;9.48;4.68;;;;;;;31.10;7.68;97061.25;6321593;28;20407;-64
2022/03/03 07:43:48;;;;;;;6.13;4.72;;;;;;;31.75;7.35;97058.81;6319515;28;20119;-64
2022/03/03 07:46:50;;;;;;;6.93;4.75;;;;;;;31.53;7.27;97065.78;6320680;28;20056;-64
2022/03/03 07:49:55;;;;;;;5.45;3.97;;;;;;;30.76;7.25;97060.72;6320851;28;20044;-63
2022/03/03 07:53:01;;;;;;;13.18;9.02;;;;;;;30.91;7.13;97051.41;6321357;28;20043;-64
2022/03/03 07:56:08;;;;;;;9.13;5.07;;;;;;;30.51;7.45;97047.13;6320939;28;20046;-64
2022/03/03 07:59:12;;;;;;;8.32;5.15;;;;;;;30.48;7.34;97052.19;6320395;28;20074;-63
2022/03/03 08:02:23;;;;;;;5.75;4.43;;;;;;;29.88;7.86;97047.97;6320279;28;20486;-64
2022/03/03 08:05:29;;;;;;;8.82;4.38;;;;;;;28.49;8.30;97037.53;6320568;28;20148;-64
2022/03/03 08:08:34;;;;;;;5.75;3.80;;;;;;;28.54;8.25;97030.44;6319858;28;20044;-65
2022/03/03 08:11:43;;;;;;;6.22;4.07;;;;;;;28.39;8.35;97027.06;6318962;28;20533;-64
2022/03/03 08:14:49;;;;;;;5.05;4.25;;;;;;;27.76;8.55;97028.22;6320454;28;20131;-63
2022/03/03 08:17:56;;;;;;;5.97;4.38;;;;;;;24.49;9.93;97009.25;6319240;28;20059;-64
2022/03/03 08:21:01;;;;;;;8.45;4.93;;;;;;;23.05;11.07;97008.03;6320533;28;20040;-64
2022/03/03 08:24:04;;;;;;;8.20;4.78;;;;;;;23.94;10.70;96997.75;6320412;28;20510;-64
2022/03/03 08:27:14;;;;;;;7.10;4.88;;;;;;;24.91;10.20;96999.72;6320502;28;20056;-64
2022/03/03 08:30:15;;;;;;;6.28;4.60;;;;;;;26.37;9.06;97003.97;6320308;28;20066;-64
2022/03/03 08:33:35;;;;;;;5.43;4.57;;;;;;;27.62;8.74;97007.59;6320227;28;20514;-63
2022/03/03 08:37:00;;;;;;;12.55;8.88;;;;;;;29.23;8.03;97007.38;6320564;28;20502;-64
2022/03/03 08:40:06;;;;;;;10.38;7.05;;;;;;;29.20;7.84;97004.28;6319735;28;20048;-64
2022/03/03 08:43:13;;;;;;;7.78;5.53;;;;;;;28.53;8.20;97009.81;6320478;28;20506;-64
2022/03/03 08:46:23;;;;;;;7.13;4.70;;;;;;;27.28;8.89;96993.13;6320613;28;20409;-63
2022/03/03 08:49:30;;;;;;;5.47;4.20;;;;;;;26.39;9.49;96996.53;6320240;28;20418;-64
2022/03/03 08:52:37;;;;;;;7.68;4.32;;;;;;;26.27;9.79;96984.63;6319461;28;20055;-63
2022/03/03 08:55:41;;;;;;;8.32;5.97;;;;;;;24.43;10.87;96975.03;6319553;28;20059;-64
2022/03/03 08:58:42;;;;;;;6.88;5.13;;;;;;;21.25;12.60;96957.22;6319519;28;20048;-64
2022/03/03 09:01:48;;;;;;;6.50;5.53;;;;;;;20.41;13.34;96960.75;6319881;28;20040;-64
2022/03/03 09:04:49;;;;;;;8.25;4.50;;;;;;;21.26;12.69;96944.69;6318464;28;20040;-64
2022/03/03 09:07:54;;;;;;;8.18;4.80;;;;;;;23.00;11.57;96956.72;6318842;28;20051;-63
2022/03/03 09:10:55;;;;;;;8.48;5.68;;;;;;;23.95;11.19;96963.69;6319566;28;20048;-63
2022/03/03 09:13:56;;;;;;;6.25;4.93;;;;;;;25.89;9.83;96965.22;6319208;28;20056;-64
2022/03/03 09:17:00;;;;;;;7.40;4.65;;;;;;;26.85;9.55;96966.31;6320110;28;20036;-63
2022/03/03 09:20:11;;;;;;;7.38;4.13;;;;;;;26.90;9.27;96973.00;6319941;28;20052;-63
2022/03/03 09:23:13;;;;;;;5.32;4.45;;;;;;;27.06;9.17;96968.09;6318787;28;20051;-64
2022/03/03 09:26:14;;;;;;;6.57;4.15;;;;;;;27.45;8.95;96954.94;6319040;28;20125;-64
2022/03/03 09:29:18;;;;;;;8.10;4.80;;;;;;;27.57;8.97;96947.91;6320781;28;20525;-64
2022/03/03 09:32:22;;;;;;;5.97;4.35;;;;;;;27.56;9.32;96943.53;6323952;28;20047;-64
2022/03/03 09:35:25;;;;;;;5.57;4.38;;;;;;;27.63;9.00;96947.09;6324489;28;20208;-64
2022/03/03 09:38:29;;;;;;;6.75;4.00;;;;;;;27.48;9.12;96938.31;6323877;28;20051;-64
2022/03/03 09:41:30;;;;;;;6.85;4.22;;;;;;;27.06;9.65;96935.69;6324073;28;20040;-64
2022/03/03 09:44:35;;;;;;;5.13;4.05;;;;;;;27.01;9.54;96931.94;6324404;28;20127;-63
2022/03/03 09:47:41;;;;;;;4.97;4.00;;;;;;;27.17;9.23;96934.28;6324278;28;20052;-64
2022/03/03 09:50:44;;;;;;;4.95;3.72;;;;;;;27.62;9.40;96929.19;6324032;28;20044;-64
2022/03/03 09:53:49;;;;;;;7.05;4.45;;;;;;;28.07;9.00;96932.16;6323354;28;20044;-64
2022/03/03 09:56:56;;;;;;;10.15;6.15;;;;;;;28.35;8.78;96917.59;6323380;28;20414;-64
2022/03/03 10:00:03;;;;;;;5.85;4.38;;;;;;;28.68;8.78;96927.50;6324432;28;20167;-63
2022/03/03 10:03:13;;;;;;;5.53;4.35;;;;;;;28.58;8.87;96922.56;6324115;28;20185;-64
2022/03/03 10:06:14;;;;;;;6.90;4.70;;;;;;;28.29;8.92;96923.84;6323414;28;20058;-64
2022/03/03 10:09:17;;;;;;;6.25;4.60;;;;;;;27.56;9.49;96923.78;6323062;28;20052;-66
2022/03/03 10:12:30;;;;;;;8.23;5.05;;;;;;;26.32;10.20;96916.56;6323979;28;20044;-63
2022/03/03 10:15:38;;;;;;;8.43;5.45;;;;;;;25.17;10.41;96914.94;6322954;28;20052;-64
2022/03/03 10:18:41;;;;;;;7.75;5.70;;;;;;;24.42;10.89;96898.00;6323189;28;20048;-63
2022/03/03 10:21:44;;;;;;;11.52;6.20;;;;;;;23.59;11.52;96907.84;6322664;28;20056;-64
2022/03/03 10:24:51;;;;;;;7.20;5.32;;;;;;;22.14;12.56;96901.19;6323043;28;20048;-64
2022/03/03 10:27:53;;;;;;;7.18;5.00;;;;;;;20.78;13.29;96903.44;6323698;28;20094;-64
2022/03/03 10:30:59;;;;;;;7.82;4.82;;;;;;;21.01;13.31;96893.81;6323416;28;20487;-63
2022/03/03 10:34:01;;;;;;;7.50;5.18;;;;;;;20.72;13.72;96893.38;6322957;28;20056;-63
2022/03/03 10:37:08;;;;;;;8.63;5.65;;;;;;;21.02;13.05;96895.47;6323349;28;20419;-64
2022/03/03 10:40:13;;;;;;;6.55;5.05;;;;;;;20.75;13.55;96882.34;6322173;28;20040;-64
2022/03/03 10:43:14;;;;;;;8.70;5.82;;;;;;;20.39;13.78;96877.22;6322466;28;20434;-64
2022/03/03 10:46:21;;;;;;;9.85;5.35;;;;;;;20.57;13.58;96872.63;6323244;28;20048;-64
2022/03/03 10:49:26;;;;;;;8.05;5.90;;;;;;;20.86;13.22;96868.69;6322624;28;20252;-64
2022/03/03 10:52:35;;;;;;;8.68;5.45;;;;;;;20.40;13.41;96866.34;6322648;28;20459;-64
2022/03/03 10:55:37;;;;;;;8.15;5.80;;;;;;;19.66;14.15;96859.78;6322686;28;20430;-63
2022/03/03 10:58:52;;;;;;;8.52;6.25;;;;;;;19.05;14.27;96872.09;6322361;28;20202;-64
2022/03/03 11:01:53;;;;;;;9.20;5.97;;;;;;;18.07;15.00;96872.78;6322442;28;20121;-65
2022/03/03 11:04:56;;;;;;;10.10;6.97;;;;;;;16.75;15.82;96863.63;6322088;28;20040;-64
2022/03/03 11:07:58;;;;;;;11.98;7.38;;;;;;;15.01;17.42;96859.19;6321637;28;20063;-64
2022/03/03 11:11:05;;;;;;;11.70;7.97;;;;;;;13.05;19.08;96856.97;6322616;28;20240;-64
2022/03/03 11:14:06;;;;;;;11.65;7.03;;;;;;;12.50;19.42;96856.56;6322126;28;20048;-63
2022/03/03 11:17:09;;;;;;;11.50;6.57;;;;;;;12.41;19.56;96851.97;6321986;28;20511;-64
2022/03/03 11:20:15;;;;;;;12.47;7.67;;;;;;;12.18;19.60;96855.44;6321546;28;20070;-64
2022/03/03 11:23:20;;;;;;;11.43;7.38;;;;;;;11.91;20.01;96854.63;6321441;28;20048;-64
2022/03/03 11:26:34;;;;;;;14.23;7.53;;;;;;;11.73;20.10;96844.53;6321362;28;20419;-64
2022/03/03 11:29:39;;;;;;;13.38;8.27;;;;;;;12.05;20.08;96852.81;6321323;28;20093;-64
2022/03/03 11:32:43;;;;;;;12.95;7.60;;;;;;;11.81;20.17;96848.31;6321559;28;20070;-64
2022/03/03 11:35:56;;;;;;;10.95;7.03;;;;;;;11.66;20.58;96826.50;6319907;28;20522;-64
2022/03/03 11:39:02;;;;;;;12.23;8.15;;;;;;;11.15;21.07;96821.25;6321634;28;20467;-65
2022/03/03 11:42:35;;;;;;;12.88;7.25;;;;;;;10.76;21.65;96827.41;6321386;28;20043;-65
2022/03/03 11:45:47;;;;;;;10.48;7.05;;;;;;;10.16;22.33;96819.88;6321225;28;20419;-64
2022/03/03 11:49:10;;;;;;;13.65;7.68;;;;;;;9.64;22.88;96816.13;6321351;28;20534;-64
2022/03/03 11:52:11;;;;;;;13.15;7.40;;;;;;;8.74;24.05;96819.78;6320281;28;20048;-64
2022/03/03 11:55:33;;;;;;;13.02;7.68;;;;;;;8.70;24.37;96819.13;6321436;28;20039;-63
2022/03/03 11:58:40;;;;;;;12.45;7.53;;;;;;;8.05;25.44;96810.59;6321406;28;20040;-64
2022/03/03 12:01:56;;;;;;;13.65;7.45;;;;;;;7.36;26.28;96801.22;6320485;28;20537;-64
2022/03/03 12:05:36;;;;;;;13.90;7.57;;;;;;;5.96;27.87;96800.41;6319340;28;20062;-64
2022/03/03 12:08:41;;;;;;;21.80;9.00;;;;;;;4.97;29.84;96800.56;6320660;28;20055;-65
2022/03/03 12:11:45;;;;;;;14.75;8.52;;;;;;;4.19;30.91;96796.03;6320948;28;20516;-65
2022/03/03 12:14:54;;;;;;;15.85;8.60;;;;;;;3.56;32.22;96790.72;6320538;28;20418;-64
2022/03/03 12:17:58;;;;;;;18.55;10.27;;;;;;;3.31;32.91;96782.97;6320634;28;20044;-65
2022/03/03 12:21:21;;;;;;;17.13;9.18;;;;;;;3.30;33.09;96776.94;6319778;28;20043;-65
2022/03/03 12:24:29;;;;;;;17.83;9.00;;;;;;;2.90;34.34;96773.19;6320972;28;20040;-65
2022/03/03 12:27:34;;;;;;;17.65;9.10;;;;;;;2.53;34.77;96784.06;6320240;28;20425;-64
2022/03/03 12:30:45;;;;;;;;;;;;;;;2.43;34.21;96769.66;6321106;28;20464;-64
2022/03/03 12:34:06;;;;;;;18.88;10.32;;;;;;;2.33;35.81;96760.50;6319417;28;19920;-65
2022/03/03 12:37:10;;;;;;;16.13;7.90;;;;;;;1.94;37.18;96763.53;6318747;28;20434;-65
2022/03/03 12:40:15;;;;;;;14.85;8.05;;;;;;;1.75;37.10;96753.72;6319991;28;20570;-65
2022/03/03 12:43:18;;;;;;;17.73;9.10;;;;;;;1.67;37.61;96766.13;6319912;28;20063;-65
2022/03/03 12:46:28;;;;;;;14.95;9.18;;;;;;;1.45;37.97;96762.47;6320165;28;20041;-65
2022/03/03 12:49:39;;;;;;;16.35;9.00;;;;;;;1.59;38.22;96757.72;6320507;28;20414;-64
2022/03/03 12:53:04;;;;;;;18.90;10.10;;;;;;;1.30;38.37;96762.06;6320343;28;20045;-66
2022/03/03 12:56:08;;;;;;;20.15;9.00;;;;;;;0.82;39.95;96749.63;6319351;28;20056;-65
2022/03/03 12:59:10;;;;;;;19.17;9.82;;;;;;;0.28;40.89;96757.13;6319233;28;20526;-65
2022/03/03 13:02:16;;;;;;;17.10;9.23;;;;;;;-0.26;41.88;96754.16;6319854;28;20040;-65
2022/03/03 13:05:35;;;;;;;19.05;9.43;;;;;;;-0.73;43.29;96747.50;6324960;28;20503;-64
2022/03/03 13:08:40;;;;;;;23.80;10.82;;;;;;;-1.09;45.01;96742.25;6324942;28;20055;-64
2022/03/03 13:11:54;;;;;;;22.23;10.55;;;;;;;-1.50;46.15;96736.22;6325303;28;20044;-64
2022/03/03 13:14:59;;;;;;;23.67;9.93;;;;;;;-2.01;46.90;96738.00;6324766;28;20040;-64
2022/03/03 13:18:10;;;;;;;20.45;9.82;;;;;;;-2.17;48.12;96737.44;6324740;28;20431;-65
2022/03/03 13:21:17;;;;;;;20.75;10.02;;;;;;;-2.69;49.45;96738.22;6325261;28;20047;-64
2022/03/03 13:24:24;;;;;;;22.50;10.43;;;;;;;-2.88;50.29;96733.38;6324055;28;20097;-64
2022/03/03 13:27:42;;;;;;;20.55;9.60;;;;;;;-3.15;50.97;96734.59;6324713;28;20491;-64
2022/03/03 13:30:51;;;;;;;23.88;11.40;;;;;;;-3.49;51.52;96729.00;6324384;28;20085;-65
2022/03/03 13:34:06;;;;;;;11.20;6.13;;;;;;;-3.51;52.34;96725.59;6323842;28;20478;-65
2022/03/03 13:37:18;;;;;;;20.42;10.95;;;;;;;-3.91;52.99;96710.63;6324375;28;20062;-66
2022/03/03 13:40:25;;;;;;;16.50;9.73;;;;;;;-3.93;53.18;96722.66;6323961;28;20047;-64
2022/03/03 13:43:26;;;;;;;21.52;8.90;;;;;;;-4.28;53.02;96716.13;6323703;28;20055;-65
2022/03/03 13:46:31;;;;;;;21.95;10.50;;;;;;;-4.17;53.90;96724.59;6324228;28;20044;-64
2022/03/03 13:49:37;;;;;;;19.33;9.38;;;;;;;-4.28;54.19;96716.97;6324071;28;20049;-67
2022/03/03 13:52:41;;;;;;;17.15;9.10;;;;;;;-4.29;54.30;96724.72;6324383;28;20044;-65
2022/03/03 13:55:54;;;;;;;26.23;11.65;;;;;;;-4.13;54.89;96721.13;6324056;28;20130;-64
2022/03/03 13:59:11;;;;;;;22.02;10.43;;;;;;;-4.22;55.30;96728.91;6323776;28;20055;-65
2022/03/03 14:02:16;;;;;;;20.67;9.40;;;;;;;-4.52;55.58;96710.34;6324032;28;20047;-65
2022/03/03 14:05:42;;;;;;;28.65;11.07;;;;;;;-4.88;56.58;96713.19;6323910;28;20040;-65
2022/03/03 14:08:51;;;;;;;23.27;10.90;;;;;;;-5.15;57.34;96712.50;6323749;28;20060;-65
2022/03/03 14:12:16;;;;;;;27.83;11.32;;;;;;;-5.33;57.83;96700.63;6323772;28;20051;-66
2022/03/03 14:15:21;;;;;;;27.35;11.43;;;;;;;-5.25;58.06;96718.53;6322115;28;20055;-64
2022/03/03 14:18:24;;;;;;;23.73;10.75;;;;;;;-5.42;57.96;96711.78;6323059;28;20430;-64
2022/03/03 14:21:26;;;;;;;21.45;10.15;;;;;;;-5.07;57.93;96727.84;6323049;28;20051;-65
2022/03/03 14:24:30;;;;;;;20.33;9.13;;;;;;;-5.35;58.17;96722.88;6323620;28;20054;-64
2022/03/03 14:27:34;;;;;;;28.70;12.55;;;;;;;-5.48;58.81;96727.19;6323568;28;20048;-64